Portada
METAR-TAF:

METAR-TAF

Aeroports :

Caen, França

latitud: 49-11N, longitud: 000-27W, altitud: 78 m

Observació

L'informe es va fer fa 38 minuts, a les 09:00 UTC
Vent 5 kt del Est/Sud-Est, variant entre Est i Sud/Sud-Est
Temperatura 21°C
Humitat 53%
Pressió 1027 hPa
Visibilitat 10 km o més
sense núvols per sota de 1500 mi sense presència de cumulonimbus.

METAR: LFRK 220900Z AUTO 12005KT 100V160 CAVOK 21/11 Q1027 NOSIG

Hora: 11:38 (09:38 UTC)

Pronòstic

L'informe es va fer fa 1 hora i 38 minuts, a les 08:00 UTC
Pronòstic vàlid del 22 a les 09 UTC al 22 a les 18 UTC
Vent 3 kt amb direcció variable
Visibilitat 10 km o més
sense núvols per sota de 1500 mi sense presència de cumulonimbus.
Evolucionant progressivament
l' 22 a les 12 UTC al 22 a les 14 UTC
Vent 7 kt del Nord/Nord-Est

TAF: LFRK 220800Z 2209/2218 VRB03KT CAVOK BECMG 2212/2214 02007KT

Observacions i pronòstics meteorològics de més de 4000 aeroports (METAR i TAF).

Les estacions disponibles són els punts grocs i vermells al mapa.

Posi el ratolí al punt desitjat per veure el nom de l'estació.

Feu clic per veure les observacions i els pronòstics meteorològics.

Per canviar el mapa: feu clic els botons verds amb una creu de color negre per apropar; al botó verd amb un guió per allunyar la imatge; o en les fletxes verdes per a mapes adjacents.


METAR-TAF: